EETNEETU

Guest
Details From EETN - TALLINN
To EETU - TARTU
Flight Number -
Tags generated
Created
Modified
Stats Distance 88 nm / 163 km
Max Altitude 4,200 ft / 1,280 m
Waypoints 3
Social Downloads 0
Likes 0
Share VATSIM

Download

Looking for another format? Having issues loading an existing format? Contact us
Advertisement - Login to hide

Notes

Basic altitude profile: - Ascent Rate: 2500ft/min - Ascent Speed: 250kts - Cruise Altitude: 35000ft - Cruise Speed: 420kts - Descent Rate: 1500ft/min - Descent Speed: 250kts Options: - Use NATs: yes - Use PACOTS: yes - Use low airways: yes - Use high airways: yes

Route

EETN PILET EETU

ID Type Via Altitude Latitude Longitude Leg Dist Tot Dist Heading (true) Name
O EETN APT - 0 ft / 0 m 59.41326˚ 24.83280˚ - 0 nm - TALLINN
PILET FIX - 4,200 ft / 1,280 m 58.56056˚ 26.27861˚ 67 nm 67 nm 138° / 139° -
O EETU APT - 0 ft / 0 m 58.30746˚ 26.69043˚ 19 nm 87 nm 139° / 140° TARTU

Altitude Profile

Advertisement - Login to hide

EETN

Details ICAO EETN (TLL)
Name TALLINN
Region Estonia
Timezone Europe/Tallinn (UTC+2.0)
Stats Elevation 131 ft / 40 m (AMSL)
Location 59.413257° 24.832803°
Runways 1
Magnetic Variation 8.634° E

METAR

EETN 110020Z 15006KT 9999 OVC031 M00/M02 Q0998 R08/310195

Decode

TAF

TAF TAF EETN 102320Z 1100/1124 14009KT 9999 BKN025 TEMPO 1100/1106 BKN008 BECMG 1115/1117 BKN010 OVC020 PROB40 TEMPO 1118/1124 4000 SN

Decode

Departure Runways

ID Width Length Bearing (true) Bearing (mag) Surface Threshold Offset Overrun Length
08 148 ft / 45 m 10,023 ft / 3,055 m 90.24° 81.61° Asphalt 820 ft / 250 m 0 ft / 0 m
26 148 ft / 45 m 10,023 ft / 3,055 m 270.28° 261.65° Asphalt 0 ft / 0 m 184 ft / 56 m

EETU

Details ICAO EETU (TAY)
Name TARTU
Region Estonia
Timezone Europe/Tallinn (UTC+2.0)
Stats Elevation 219 ft / 67 m (AMSL)
Location 58.307462° 26.690427°
Runways 1
Magnetic Variation 8.943° E

METAR

EETU 102350Z AUTO 16006KT 9999 OVC020/// M01/M03 Q0999

Decode

TAF

Not found

Destination Runways

ID Width Length Bearing (true) Bearing (mag) Surface Threshold Offset Overrun Length
08 115 ft / 35 m 4,510 ft / 1,375 m 88.42° 79.48° Asphalt 0 ft / 0 m 0 ft / 0 m
26 115 ft / 35 m 4,510 ft / 1,375 m 268.44° 259.50° Asphalt 0 ft / 0 m 0 ft / 0 m

Popular Alternatives